createdAt,value
2022-10-05T03:56:07.682Z,102185.78
2022-10-05T03:58:41.093Z,102188.59
2022-10-05T04:01:19.325Z,102194.22
2022-10-05T04:03:56.881Z,102196.81
2022-10-05T04:06:28.000Z,102194.78
2022-10-05T04:09:09.152Z,102198.78
2022-10-05T04:11:40.836Z,102196.34
2022-10-05T04:14:18.028Z,102198.13
2022-10-05T04:16:48.332Z,102207.88
2022-10-05T04:19:25.899Z,102206.94
2022-10-05T04:22:03.519Z,102203.16
2022-10-05T04:24:40.619Z,102203.34
2022-10-05T04:27:15.679Z,102200.34
2022-10-05T04:29:58.020Z,102205.66
2022-10-05T04:32:36.409Z,102201.00
2022-10-05T04:35:20.253Z,102196.91
2022-10-05T04:38:11.859Z,102200.59
2022-10-05T04:41:17.787Z,102205.63
2022-10-05T04:44:13.354Z,102198.22
2022-10-05T04:47:19.555Z,102195.78
2022-10-05T04:50:17.635Z,102199.88
2022-10-05T04:53:05.128Z,102207.09
2022-10-05T04:55:58.137Z,102204.34
2022-10-05T04:59:03.725Z,102200.09
2022-10-05T05:01:54.700Z,102208.25
2022-10-05T05:04:57.341Z,102209.41
2022-10-05T05:08:04.097Z,102207.63
2022-10-05T05:10:54.527Z,102214.25
2022-10-05T05:13:37.505Z,102213.22
2022-10-05T05:16:33.286Z,102213.94
2022-10-05T05:19:16.280Z,102216.59
2022-10-05T05:21:58.131Z,102212.84
2022-10-05T05:24:44.858Z,102217.09
2022-10-05T05:27:27.598Z,102223.31
2022-10-05T05:30:07.667Z,102221.66
2022-10-05T05:32:48.763Z,102236.59
2022-10-05T05:35:39.734Z,102226.69
2022-10-05T05:38:32.737Z,102234.63
2022-10-05T05:41:10.736Z,102227.97
2022-10-05T05:44:19.480Z,102230.69
2022-10-05T05:47:04.083Z,102227.44
2022-10-05T05:49:53.143Z,102233.03
2022-10-05T05:52:31.318Z,102239.25
2022-10-05T05:55:07.313Z,102242.03
2022-10-05T05:57:43.364Z,102249.47
2022-10-05T06:00:14.451Z,102246.19
2022-10-05T06:03:02.361Z,102248.03
2022-10-05T06:05:40.707Z,102251.13
2022-10-05T06:08:18.681Z,102243.53
2022-10-05T06:10:56.500Z,102247.94
2022-10-05T06:13:31.138Z,102247.66
2022-10-05T06:16:08.503Z,102259.16
2022-10-05T06:18:40.108Z,102262.16
2022-10-05T06:21:27.122Z,102260.13
2022-10-05T06:24:25.786Z,102265.19
2022-10-05T06:27:44.128Z,102272.88
2022-10-05T06:30:17.632Z,102272.13
2022-10-05T06:33:07.509Z,102269.47
2022-10-05T06:35:34.957Z,102267.38
2022-10-05T06:38:49.380Z,102273.00
2022-10-05T06:41:41.699Z,102271.28
2022-10-05T06:44:21.640Z,102271.09
2022-10-05T06:47:23.229Z,102273.19
2022-10-05T06:50:52.630Z,102271.25
2022-10-05T06:53:50.714Z,102281.28
2022-10-05T06:56:36.616Z,102273.56
2022-10-05T06:59:23.237Z,102280.69
2022-10-05T07:02:33.950Z,102282.41
2022-10-05T07:05:21.500Z,102289.63
2022-10-05T07:07:59.695Z,102286.00
2022-10-05T07:10:46.369Z,102288.59
2022-10-05T07:13:35.499Z,102295.25
2022-10-05T07:16:30.302Z,102291.97
2022-10-05T07:19:13.301Z,102301.03
2022-10-05T07:21:58.763Z,102302.78
2022-10-05T07:24:42.977Z,102308.69
2022-10-05T07:27:17.759Z,102311.50
2022-10-05T07:29:50.789Z,102315.63
2022-10-05T07:32:32.837Z,102312.28
2022-10-05T07:35:41.171Z,102310.22
2022-10-05T07:38:32.638Z,102308.41
2022-10-05T07:41:23.035Z,102319.75
2022-10-05T07:44:12.562Z,102316.88
2022-10-05T07:47:03.168Z,102316.09
2022-10-05T07:49:52.016Z,102316.09
2022-10-05T07:52:34.672Z,102320.44
2022-10-05T07:55:20.985Z,102322.00
2022-10-05T07:58:16.896Z,102311.53
2022-10-05T08:01:06.312Z,102318.72
2022-10-05T08:03:54.857Z,102311.72
2022-10-05T08:06:37.664Z,102314.91
2022-10-05T08:09:20.815Z,102318.75
2022-10-05T08:12:17.875Z,102315.75
2022-10-05T08:15:13.880Z,102329.31
2022-10-05T08:18:04.322Z,102325.31
2022-10-05T08:20:52.375Z,102324.69
2022-10-05T08:23:31.037Z,102325.72
2022-10-05T08:26:16.247Z,102331.47
2022-10-05T08:29:04.914Z,102335.66
2022-10-05T08:31:36.060Z,102336.91
2022-10-05T08:34:21.014Z,102335.63
2022-10-05T08:37:02.031Z,102331.16
2022-10-05T08:39:37.317Z,102336.28
2022-10-05T08:42:26.237Z,102341.47
2022-10-05T08:45:18.648Z,102334.59
2022-10-05T08:48:04.645Z,102331.91
2022-10-05T08:51:13.612Z,102340.09
2022-10-05T08:54:02.298Z,102332.56
2022-10-05T08:56:41.783Z,102338.66
2022-10-05T08:59:22.068Z,102334.84
2022-10-05T09:02:26.254Z,102339.09
2022-10-05T09:05:25.702Z,102343.53
2022-10-05T09:08:31.062Z,102343.66
2022-10-05T09:11:06.999Z,102344.09
2022-10-05T09:14:28.358Z,102343.06
2022-10-05T09:17:17.777Z,102344.41
2022-10-05T09:19:53.721Z,102341.22
2022-10-05T09:22:21.579Z,102348.44
2022-10-05T09:24:57.174Z,102344.19
2022-10-05T09:27:37.865Z,102337.50
2022-10-05T09:30:27.092Z,102337.63
2022-10-05T09:32:57.986Z,102337.56
2022-10-05T09:35:44.242Z,102333.19
2022-10-05T09:38:50.325Z,102333.91
2022-10-05T09:41:35.864Z,102338.19
2022-10-05T09:44:15.569Z,102336.66
2022-10-05T09:47:04.795Z,102338.97
2022-10-05T09:49:57.399Z,102329.81
2022-10-05T09:52:42.572Z,102340.50
2022-10-05T09:55:41.527Z,102347.53
2022-10-05T09:58:42.294Z,102330.84
2022-10-05T10:01:34.904Z,102328.63
2022-10-05T10:04:11.276Z,102320.91
2022-10-05T10:06:51.425Z,102320.69
2022-10-05T10:09:46.640Z,102313.63
2022-10-05T10:12:36.281Z,102320.75
2022-10-05T10:15:44.702Z,102324.72
2022-10-05T10:18:28.629Z,102322.56
2022-10-05T10:21:25.318Z,102321.84
2022-10-05T10:24:57.670Z,102319.66
2022-10-05T10:27:33.312Z,102316.34
2022-10-05T10:30:26.305Z,102310.59
2022-10-05T10:33:52.614Z,102310.13
2022-10-05T10:36:34.852Z,102315.66
2022-10-05T10:39:21.200Z,102313.69
2022-10-05T10:42:00.881Z,102302.66
2022-10-05T10:44:47.261Z,102314.69
2022-10-05T10:47:18.268Z,102306.00
2022-10-05T10:50:05.043Z,102304.34
2022-10-05T10:53:01.713Z,102309.66
2022-10-05T10:55:59.784Z,102304.16
2022-10-05T10:59:09.034Z,102310.75
2022-10-05T11:02:18.497Z,102308.22
2022-10-05T11:05:04.652Z,102306.91
2022-10-05T11:08:03.288Z,102296.59
2022-10-05T11:10:55.670Z,102294.75
2022-10-05T11:13:47.916Z,102296.78
2022-10-05T11:16:27.387Z,102292.66
2022-10-05T11:20:07.307Z,102282.91
2022-10-05T11:23:19.305Z,102289.19
2022-10-05T11:25:58.006Z,102278.25
2022-10-05T11:28:50.295Z,102273.47
2022-10-05T11:31:36.557Z,102277.69
2022-10-05T11:34:13.563Z,102276.28
2022-10-05T11:36:50.194Z,102277.94
2022-10-05T11:39:39.488Z,102274.09
2022-10-05T11:42:25.485Z,102269.81
2022-10-05T11:45:24.834Z,102269.34
2022-10-05T11:48:26.621Z,102266.53
2022-10-05T11:51:00.058Z,102263.34
2022-10-05T11:53:43.858Z,102265.22
2022-10-05T11:56:11.095Z,102257.59
2022-10-05T11:58:49.473Z,102259.13
2022-10-05T12:01:29.676Z,102248.91
2022-10-05T12:04:05.456Z,102243.09
2022-10-05T12:06:51.441Z,102244.19
2022-10-05T12:09:34.614Z,102233.16
2022-10-05T12:12:18.895Z,102234.16
2022-10-05T12:14:52.632Z,102233.22
2022-10-05T12:17:37.663Z,102227.94
2022-10-05T12:20:41.152Z,102232.16
2022-10-05T12:23:27.429Z,102230.41
2022-10-05T12:25:55.665Z,102224.94
2022-10-05T12:28:33.372Z,102223.75
2022-10-05T12:31:22.490Z,102223.16
2022-10-05T12:34:02.450Z,102216.44
2022-10-05T12:37:03.441Z,102217.28
2022-10-05T12:40:13.591Z,102216.81
2022-10-05T12:43:10.343Z,102213.91
2022-10-05T12:46:17.726Z,102211.97
2022-10-05T12:49:15.698Z,102218.47
2022-10-05T12:52:01.477Z,102224.03
2022-10-05T12:54:58.138Z,102214.03
2022-10-05T12:57:46.101Z,102204.16
2022-10-05T13:00:22.695Z,102214.25
2022-10-05T13:03:02.101Z,102213.88
2022-10-05T13:05:44.792Z,102206.28
2022-10-05T13:08:20.912Z,102203.00
2022-10-05T13:10:48.332Z,102209.44
2022-10-05T13:13:25.210Z,102203.81
2022-10-05T13:15:58.204Z,102204.66
2022-10-05T13:18:37.492Z,102202.06
2022-10-05T13:21:29.504Z,102198.72
2022-10-05T13:24:22.310Z,102202.44
2022-10-05T13:26:55.226Z,102193.72
2022-10-05T13:29:33.222Z,102189.69
2022-10-05T13:32:09.900Z,102198.81
2022-10-05T13:35:14.780Z,102192.56
2022-10-05T13:38:00.320Z,102187.56
2022-10-05T13:40:42.227Z,102137.78
2022-10-05T13:43:13.587Z,102136.44
2022-10-05T13:46:05.548Z,102130.16
2022-10-05T13:49:03.101Z,102109.59
2022-10-05T13:51:52.613Z,102089.09
2022-10-05T13:54:42.537Z,102126.78
2022-10-05T13:57:47.192Z,102183.03
2022-10-05T14:00:25.669Z,102121.09
2022-10-05T14:02:57.278Z,102112.63
2022-10-05T14:05:27.167Z,102160.84
2022-10-05T14:08:16.563Z,102155.63
2022-10-05T14:10:46.692Z,102072.28
2022-10-05T14:13:29.380Z,102061.25
2022-10-05T14:16:04.357Z,102062.44
2022-10-05T14:18:36.314Z,102168.19
2022-10-05T14:21:12.787Z,102179.25
2022-10-05T14:23:40.632Z,102170.13
2022-10-05T14:26:40.323Z,102177.69
2022-10-05T14:29:24.775Z,102178.56
2022-10-05T14:32:00.996Z,102185.84
2022-10-05T14:34:36.723Z,102178.94
2022-10-05T14:37:20.365Z,102180.28
2022-10-05T14:39:49.924Z,102181.53
2022-10-05T14:42:23.407Z,102179.94
2022-10-05T14:45:11.568Z,102178.13
2022-10-05T14:48:10.362Z,102180.38
2022-10-05T14:51:04.264Z,102186.44
2022-10-05T14:53:45.826Z,102179.06
2022-10-05T14:56:41.351Z,102177.72
2022-10-05T14:59:12.500Z,102186.47
2022-10-05T15:01:49.335Z,102176.88
2022-10-05T15:04:35.574Z,102172.50
2022-10-05T15:07:14.253Z,102180.72
2022-10-05T15:10:03.293Z,102170.47
2022-10-05T15:12:39.707Z,102176.25
2022-10-05T15:15:28.891Z,102179.44
2022-10-05T15:18:34.922Z,102180.94
2022-10-05T15:21:09.032Z,102174.66
2022-10-05T15:23:43.693Z,102174.41
2022-10-05T15:26:28.702Z,102176.94
2022-10-05T15:29:19.128Z,102170.03
2022-10-05T15:32:03.234Z,102168.88
2022-10-05T15:34:50.638Z,102174.50
2022-10-05T15:37:25.397Z,102168.78
2022-10-05T15:39:57.047Z,102180.91
2022-10-05T15:42:44.079Z,102185.81
2022-10-05T15:45:23.519Z,102183.69
2022-10-05T15:48:05.635Z,102192.78
2022-10-05T15:50:41.851Z,102191.28
2022-10-05T15:53:43.019Z,102190.91
2022-10-05T15:56:10.281Z,102192.16
2022-10-05T15:59:11.298Z,102198.50
2022-10-05T16:01:51.850Z,102193.56
2022-10-05T16:05:40.908Z,102192.47
2022-10-05T16:08:39.372Z,102203.19
2022-10-05T16:11:19.060Z,102198.09
2022-10-05T16:14:14.516Z,102195.25
2022-10-05T16:16:59.792Z,102200.06
2022-10-05T16:20:04.251Z,102208.84
2022-10-05T16:22:49.991Z,102196.47
2022-10-05T16:25:25.897Z,102199.06
2022-10-05T16:28:05.752Z,102207.06
2022-10-05T16:31:06.822Z,102207.34
2022-10-05T16:33:44.579Z,102211.41
2022-10-05T16:36:37.649Z,102213.00
2022-10-05T16:39:11.940Z,102219.28
2022-10-05T16:42:05.454Z,102226.16
2022-10-05T16:44:44.503Z,102230.84
2022-10-05T16:47:27.443Z,102232.19
2022-10-05T16:50:00.313Z,102227.00
2022-10-05T16:52:29.293Z,102228.59
2022-10-05T16:55:02.925Z,102236.53
2022-10-05T16:57:37.694Z,102240.53
2022-10-05T17:00:08.114Z,102232.47
2022-10-05T17:02:46.133Z,102243.22
2022-10-05T17:05:38.755Z,102245.38
2022-10-05T17:08:18.252Z,102238.47
2022-10-05T17:11:00.128Z,102241.25
2022-10-05T17:13:37.404Z,102245.97
2022-10-05T17:16:25.012Z,102245.97
2022-10-05T17:18:55.400Z,102245.34
2022-10-05T17:21:35.113Z,102252.81
2022-10-05T17:24:11.997Z,102252.09
2022-10-05T17:26:45.339Z,102254.13
2022-10-05T17:29:32.143Z,102254.84
2022-10-05T17:32:06.691Z,102257.34
2022-10-05T17:34:37.950Z,102259.88
2022-10-05T17:37:26.965Z,102251.56
2022-10-05T17:39:56.104Z,102257.97
2022-10-05T17:42:26.728Z,102259.28
2022-10-05T17:45:20.648Z,102257.59
2022-10-05T17:48:00.944Z,102260.34
2022-10-05T17:51:03.184Z,102253.38
2022-10-05T17:54:01.544Z,102263.00
2022-10-05T17:56:31.572Z,102268.44
2022-10-05T17:59:04.511Z,102263.13
2022-10-05T18:01:41.428Z,102266.72
2022-10-05T18:04:12.081Z,102272.59
2022-10-05T18:06:39.632Z,102268.84
2022-10-05T18:09:22.404Z,102267.50
2022-10-05T18:12:24.824Z,102265.69
2022-10-05T18:15:07.085Z,102268.06
2022-10-05T18:17:37.022Z,102277.13
2022-10-05T18:20:21.742Z,102281.28
2022-10-05T18:22:50.788Z,102277.94
2022-10-05T18:25:38.203Z,102275.66
2022-10-05T18:28:34.394Z,102271.44
2022-10-05T18:31:11.526Z,102277.91
2022-10-05T18:34:13.230Z,102274.00
2022-10-05T18:37:04.629Z,102281.47
2022-10-05T18:40:05.125Z,102273.63
2022-10-05T18:43:09.550Z,102289.41
2022-10-05T18:45:52.127Z,102289.00
2022-10-05T18:48:22.607Z,102286.78
2022-10-05T18:50:55.845Z,102274.09
2022-10-05T18:53:53.641Z,102289.47
2022-10-05T18:56:34.556Z,102281.97
2022-10-05T18:59:29.661Z,102286.59
2022-10-05T19:02:24.586Z,102278.94
2022-10-05T19:05:23.602Z,102285.19
2022-10-05T19:08:15.640Z,102284.63
2022-10-05T19:10:50.704Z,102293.66
2022-10-05T19:13:31.577Z,102296.38
2022-10-05T19:16:17.243Z,102292.56
2022-10-05T19:19:07.602Z,102291.91
2022-10-05T19:22:10.068Z,102294.13
2022-10-05T19:25:15.983Z,102295.25
2022-10-05T19:28:05.915Z,102294.06
2022-10-05T19:31:01.527Z,102291.56
2022-10-05T19:33:49.838Z,102293.38
2022-10-05T19:36:55.449Z,102293.84
2022-10-05T19:39:39.532Z,102298.31
2022-10-05T19:42:29.448Z,102304.06
2022-10-05T19:45:28.756Z,102299.69
2022-10-05T19:48:26.085Z,102303.53
2022-10-05T19:50:59.468Z,102304.63
2022-10-05T19:53:37.778Z,102307.38
2022-10-05T19:56:32.881Z,102312.31
2022-10-05T19:59:13.296Z,102308.13
2022-10-05T20:01:49.503Z,102311.56
2022-10-05T20:04:35.759Z,102320.75
2022-10-05T20:07:04.785Z,102315.81
2022-10-05T20:09:58.456Z,102318.44
2022-10-05T20:12:52.493Z,102313.78
2022-10-05T20:15:43.079Z,102315.69
2022-10-05T20:18:56.396Z,102328.69
2022-10-05T20:21:45.440Z,102328.06
2022-10-05T20:24:26.801Z,102327.63
2022-10-05T20:27:05.146Z,102329.16
2022-10-05T20:29:41.442Z,102328.28
2022-10-05T20:32:12.319Z,102328.97
2022-10-05T20:34:42.988Z,102329.66
2022-10-05T20:37:13.432Z,102327.66
2022-10-05T20:39:42.440Z,102331.75
2022-10-05T20:42:11.474Z,102329.69
2022-10-05T20:44:40.827Z,102333.94
2022-10-05T20:47:09.551Z,102331.38
2022-10-05T20:49:41.234Z,102328.47
2022-10-05T20:52:11.418Z,102334.00
2022-10-05T20:54:39.448Z,102325.72
2022-10-05T20:57:10.405Z,102330.59
2022-10-05T20:59:39.122Z,102336.34
2022-10-05T21:02:07.436Z,102331.03
2022-10-05T21:04:40.923Z,102333.13
2022-10-05T21:07:12.413Z,102338.88
2022-10-05T21:09:42.434Z,102335.91
2022-10-05T21:12:11.565Z,102335.47
2022-10-05T21:14:40.593Z,102332.31
2022-10-05T21:17:09.537Z,102331.06
2022-10-05T21:19:39.372Z,102329.97
2022-10-05T21:22:09.283Z,102331.06
2022-10-05T21:24:39.543Z,102328.69
2022-10-05T21:27:07.344Z,102331.03
2022-10-05T21:29:37.013Z,102327.66
2022-10-05T21:32:08.782Z,102325.53
2022-10-05T21:34:37.151Z,102321.28
2022-10-05T21:37:05.335Z,102320.03
2022-10-05T21:39:36.833Z,102317.25
